Time;durP1;ratioP1;P1;durP2;ratioP2;P2;SDS_P1;SDS_P2;PMS_P1;PMS_P2;Temp;Humidity;BMP_temperature;BMP_pressure;BME280_temperature;BME280_humidity;BME280_pressure;Samples;Min_cycle;Max_cycle;Signal;HPM_P1;HPM_P2
2024/01/04 00:00:23;;;;;;;7.87;3.37;;;9.00;99.90;;;;;;5051748;28;20544;-74
2024/01/04 00:02:51;;;;;;;4.30;3.00;;;9.00;99.90;;;;;;5051761;28;20181;-74
2024/01/04 00:05:18;;;;;;;6.17;3.50;;;9.00;99.90;;;;;;5051643;28;20543;-74
2024/01/04 00:07:44;;;;;;;9.03;3.50;;;9.00;99.90;;;;;;5051724;28;20177;-74
2024/01/04 00:10:12;;;;;;;7.33;3.80;;;9.00;99.90;;;;;;5051558;28;20270;-74
2024/01/04 00:12:38;;;;;;;9.57;4.17;;;9.10;99.90;;;;;;5051264;28;20655;-73
2024/01/04 00:15:04;;;;;;;7.17;4.20;;;9.10;99.90;;;;;;5048451;28;20173;-74
2024/01/04 00:17:30;;;;;;;7.43;4.53;;;9.10;99.90;;;;;;5031465;28;20280;-74
2024/01/04 00:19:56;;;;;;;9.00;4.90;;;9.10;99.90;;;;;;5031509;28;20220;-74
2024/01/04 00:22:22;;;;;;;7.27;4.43;;;9.10;99.90;;;;;;5063401;28;20177;-74
2024/01/04 00:24:48;;;;;;;8.50;4.30;;;9.10;99.90;;;;;;5031457;28;20177;-74
2024/01/04 00:27:14;;;;;;;10.87;4.70;;;9.00;99.90;;;;;;5030094;28;20216;-74
2024/01/04 00:29:42;;;;;;;6.90;3.80;;;9.00;99.90;;;;;;5063324;28;20205;-74
2024/01/04 00:32:08;;;;;;;9.23;4.03;;;8.90;99.90;;;;;;5031155;28;20279;-74
2024/01/04 00:34:34;;;;;;;8.87;4.20;;;8.90;99.90;;;;;;5030204;28;20264;-74
2024/01/04 00:36:59;;;;;;;6.80;3.60;;;8.90;99.90;;;;;;5031276;28;20269;-74
2024/01/04 00:39:25;;;;;;;7.67;3.73;;;8.90;99.90;;;;;;5031244;28;20212;-74
2024/01/04 00:41:51;;;;;;;9.50;3.70;;;8.90;99.90;;;;;;5031148;28;20605;-74
2024/01/04 00:44:17;;;;;;;6.50;3.30;;;8.80;99.90;;;;;;5031162;28;20184;-73
2024/01/04 00:46:43;;;;;;;13.10;4.57;;;8.70;99.90;;;;;;5031069;28;20205;-74
2024/01/04 00:49:09;;;;;;;8.17;3.80;;;8.70;99.90;;;;;;5035065;28;20644;-73
2024/01/04 00:51:35;;;;;;;9.10;4.03;;;8.70;99.90;;;;;;5047290;28;20679;-74
2024/01/04 00:54:01;;;;;;;10.23;4.20;;;8.20;99.90;;;;;;5051014;28;20244;-73
2024/01/04 00:56:34;;;;;;;11.07;4.53;;;8.70;99.90;;;;;;5050990;28;20169;-74
2024/01/04 00:59:00;;;;;;;7.83;4.20;;;8.80;99.90;;;;;;5050936;28;20204;-73
2024/01/04 01:01:26;;;;;;;8.17;4.37;;;8.70;99.90;;;;;;5050908;28;20177;-73
2024/01/04 01:03:52;;;;;;;9.43;4.73;;;8.70;99.90;;;;;;5051034;28;20172;-74
2024/01/04 01:06:17;;;;;;;6.40;4.60;;;8.60;99.90;;;;;;5050767;28;20174;-74
2024/01/04 01:08:43;;;;;;;6.63;4.40;;;8.60;99.90;;;;;;5050847;28;20161;-73
2024/01/04 01:11:09;;;;;;;7.30;4.50;;;8.60;99.90;;;;;;5051020;28;20295;-74
2024/01/04 01:13:34;;;;;;;8.73;4.47;;;8.60;99.90;;;;;;5050757;28;20591;-74
2024/01/04 01:16:00;;;;;;;12.63;5.23;;;8.60;99.90;;;;;;5051029;28;20177;-74
2024/01/04 01:18:27;;;;;;;8.50;4.60;;;8.60;99.90;;;;;;5050819;28;20169;-74
2024/01/04 01:20:54;;;;;;;8.13;4.17;;;8.50;99.90;;;;;;5050785;28;20178;-74
2024/01/04 01:23:19;;;;;;;10.73;4.87;;;8.50;99.90;;;;;;5049441;28;20177;-74
2024/01/04 01:25:45;;;;;;;9.67;4.53;;;8.50;99.90;;;;;;5050737;28;20264;-74
2024/01/04 01:28:11;;;;;;;9.73;4.30;;;8.40;99.90;;;;;;5050736;28;20165;-74
2024/01/04 01:30:36;;;;;;;12.37;4.33;;;8.40;99.90;;;;;;5050738;28;20216;-74
2024/01/04 01:33:02;;;;;;;9.43;4.10;;;8.30;99.90;;;;;;5050709;28;20177;-74
2024/01/04 01:35:28;;;;;;;8.93;4.27;;;8.30;99.90;;;;;;5050589;28;20177;-74
2024/01/04 01:37:54;;;;;;;9.13;3.90;;;8.30;99.90;;;;;;5050540;28;20177;-74
2024/01/04 01:40:21;;;;;;;9.80;4.10;;;8.30;99.90;;;;;;5050643;28;20696;-74
2024/01/04 01:42:48;;;;;;;7.57;3.60;;;8.20;99.90;;;;;;5044263;28;20537;-74
2024/01/04 01:45:14;;;;;;;12.10;4.30;;;8.20;99.90;;;;;;5030507;28;20200;-75
2024/01/04 01:47:41;;;;;;;8.87;3.83;;;8.30;99.90;;;;;;5030770;28;20179;-74
2024/01/04 01:50:08;;;;;;;12.53;4.10;;;8.30;99.90;;;;;;5034066;28;20220;-74
2024/01/04 01:52:36;;;;;;;7.50;3.57;;;8.40;99.90;;;;;;5050339;28;20169;-74
2024/01/04 01:55:03;;;;;;;9.60;4.20;;;8.40;99.90;;;;;;5040750;28;20174;-75
2024/01/04 01:57:32;;;;;;;10.27;4.57;;;8.50;99.90;;;;;;5030427;28;20663;-74
2024/01/04 01:59:58;;;;;;;8.27;3.97;;;8.50;99.90;;;;;;5034056;28;20629;-74
2024/01/04 02:02:24;;;;;;;9.10;4.10;;;8.40;99.90;;;;;;5033964;28;20245;-74
2024/01/04 02:04:50;;;;;;;8.57;3.97;;;8.40;99.90;;;;;;5033787;28;20174;-74
2024/01/04 02:07:16;;;;;;;8.70;4.10;;;8.40;99.90;;;;;;5042234;28;20181;-74
2024/01/04 02:09:42;;;;;;;4.47;3.57;;;8.40;99.90;;;;;;5053840;28;20201;-74
2024/01/04 02:12:10;;;;;;;7.13;3.87;;;8.30;99.90;;;;;;5053592;28;20579;-74
2024/01/04 02:14:36;;;;;;;8.07;3.70;;;8.10;99.90;;;;;;5053684;28;20184;-74
2024/01/04 02:17:02;;;;;;;9.27;3.90;;;8.10;99.90;;;;;;5052301;28;20173;-74
2024/01/04 02:19:29;;;;;;;9.80;4.00;;;8.00;99.90;;;;;;5052259;28;20166;-73
2024/01/04 02:21:55;;;;;;;8.40;4.00;;;8.00;99.90;;;;;;5053467;28;20690;-74
2024/01/04 02:24:21;;;;;;;7.40;3.73;;;8.20;99.90;;;;;;5053810;28;20169;-74
2024/01/04 02:26:46;;;;;;;6.33;3.57;;;7.90;99.90;;;;;;5053520;28;20199;-74
2024/01/04 02:29:12;;;;;;;8.83;3.50;;;7.80;99.90;;;;;;5053523;28;20643;-74
2024/01/04 02:31:38;;;;;;;6.70;3.50;;;7.80;99.90;;;;;;5053370;28;20514;-74
2024/01/04 02:34:03;;;;;;;7.07;3.50;;;7.80;99.90;;;;;;5053313;28;20166;-74
2024/01/04 02:36:29;;;;;;;6.50;3.50;;;7.80;99.90;;;;;;5053365;28;20173;-73
2024/01/04 02:38:55;;;;;;;8.37;3.40;;;7.70;99.90;;;;;;5053304;28;20504;-73
2024/01/04 02:41:20;;;;;;;8.97;3.60;;;7.70;99.90;;;;;;5053371;28;20287;-73
2024/01/04 02:43:46;;;;;;;6.83;3.53;;;7.70;99.90;;;;;;5053168;28;20177;-74
2024/01/04 02:46:12;;;;;;;6.00;3.40;;;7.70;99.90;;;;;;5053186;28;20177;-73
2024/01/04 02:48:37;;;;;;;7.53;3.47;;;7.70;99.90;;;;;;5051961;28;20169;-74
2024/01/04 02:51:03;;;;;;;9.03;3.53;;;7.70;99.90;;;;;;5051588;28;21075;-73
2024/01/04 02:53:29;;;;;;;8.33;3.53;;;7.60;99.90;;;;;;5050335;28;20201;-74
2024/01/04 02:55:55;;;;;;;8.47;3.50;;;7.60;99.90;;;;;;5050243;28;20683;-74
2024/01/04 02:58:21;;;;;;;9.37;3.80;;;7.60;99.90;;;;;;5038487;28;20289;-73
2024/01/04 03:00:47;;;;;;;5.77;3.23;;;7.60;99.90;;;;;;5041380;28;20264;-73
2024/01/04 03:03:12;;;;;;;7.13;3.50;;;7.60;99.90;;;;;;5049844;28;20188;-74
2024/01/04 03:05:38;;;;;;;6.57;3.50;;;7.50;99.90;;;;;;5051433;28;20612;-73
2024/01/04 03:08:04;;;;;;;9.20;3.50;;;7.50;99.90;;;;;;5052756;28;20265;-74
2024/01/04 03:10:30;;;;;;;8.10;3.50;;;7.50;99.90;;;;;;5052487;28;20205;-74
2024/01/04 03:12:55;;;;;;;6.67;3.60;;;7.50;99.90;;;;;;5052452;28;20180;-74
2024/01/04 03:15:21;;;;;;;9.60;3.70;;;7.70;99.90;;;;;;5052293;28;20187;-74
2024/01/04 03:17:47;;;;;;;7.67;4.00;;;7.70;99.90;;;;;;5052259;28;20177;-74
2024/01/04 03:20:12;;;;;;;7.63;3.97;;;7.70;99.90;;;;;;5052500;28;20178;-74
2024/01/04 03:22:38;;;;;;;8.20;3.63;;;7.70;99.90;;;;;;5051420;28;20188;-74
2024/01/04 03:25:05;;;;;;;7.67;3.43;;;7.60;99.90;;;;;;5052327;28;20669;-74
2024/01/04 03:27:31;;;;;;;7.50;3.60;;;7.70;99.90;;;;;;5052444;28;20184;-74
2024/01/04 03:29:57;;;;;;;6.20;3.50;;;7.60;99.90;;;;;;5052298;28;20173;-74
2024/01/04 03:32:22;;;;;;;5.17;3.00;;;7.60;99.90;;;;;;5052113;28;20201;-73
2024/01/04 03:34:48;;;;;;;7.13;3.70;;;7.60;99.90;;;;;;5052044;28;20236;-74
2024/01/04 03:37:14;;;;;;;6.97;3.47;;;7.50;99.90;;;;;;5052160;28;20174;-73
2024/01/04 03:39:40;;;;;;;6.63;3.47;;;7.50;99.90;;;;;;5052070;28;20176;-73
2024/01/04 03:42:05;;;;;;;4.33;3.07;;;7.50;99.90;;;;;;5052087;28;20181;-74
2024/01/04 03:44:31;;;;;;;6.03;3.40;;;7.40;99.90;;;;;;5052052;28;20178;-73
2024/01/04 03:46:56;;;;;;;5.33;3.00;;;7.40;99.90;;;;;;5051895;28;20177;-74
2024/01/04 03:49:22;;;;;;;5.40;3.33;;;7.30;99.90;;;;;;5051345;28;20273;-74
2024/01/04 03:51:48;;;;;;;5.70;3.20;;;7.20;99.90;;;;;;5043934;28;20260;-73
2024/01/04 03:54:13;;;;;;;6.33;3.37;;;7.30;99.90;;;;;;5041913;28;20177;-72
2024/01/04 03:56:39;;;;;;;6.17;3.43;;;7.30;99.90;;;;;;5039874;28;20614;-73
2024/01/04 03:59:05;;;;;;;7.20;3.23;;;7.30;99.90;;;;;;5034105;28;20205;-72
2024/01/04 04:01:30;;;;;;;6.00;3.23;;;7.30;99.90;;;;;;5051576;28;20179;-72
2024/01/04 04:03:56;;;;;;;5.53;3.43;;;7.30;99.90;;;;;;5050042;28;20180;-72
2024/01/04 04:06:22;;;;;;;5.87;3.40;;;7.40;99.90;;;;;;5051651;28;20509;-72
2024/01/04 04:08:47;;;;;;;6.77;3.17;;;7.40;99.90;;;;;;5037813;28;20228;-73
2024/01/04 04:11:17;;;;;;;9.13;3.23;;;7.40;99.90;;;;;;5031548;28;20213;-72
2024/01/04 04:13:43;;;;;;;6.83;3.23;;;7.30;99.90;;;;;;5031829;28;20645;-72
2024/01/04 04:16:09;;;;;;;4.37;2.90;;;7.30;99.90;;;;;;5031573;28;20169;-72
2024/01/04 04:18:34;;;;;;;5.87;2.83;;;7.30;99.90;;;;;;5043271;28;20184;-73
2024/01/04 04:21:00;;;;;;;7.27;3.43;;;7.30;99.90;;;;;;5050072;28;20185;-73
2024/01/04 04:23:26;;;;;;;6.97;3.37;;;7.30;99.90;;;;;;5035857;28;20205;-73
2024/01/04 04:25:52;;;;;;;6.90;3.47;;;7.20;99.90;;;;;;5051348;28;20647;-73
2024/01/04 04:28:18;;;;;;;7.87;3.13;;;7.20;99.90;;;;;;5050527;28;20181;-74
2024/01/04 04:30:44;;;;;;;5.73;3.20;;;7.20;99.90;;;;;;5050710;28;20263;-75
2024/01/04 04:33:09;;;;;;;7.83;3.17;;;7.10;99.90;;;;;;5041716;28;20181;-75
2024/01/04 04:35:35;;;;;;;4.77;3.10;;;7.10;99.90;;;;;;5044075;28;20626;-74
2024/01/04 04:38:01;;;;;;;5.03;2.87;;;7.00;99.90;;;;;;5034967;28;20186;-74
2024/01/04 04:40:26;;;;;;;10.23;3.70;;;6.90;99.90;;;;;;5039624;28;20174;-74
2024/01/04 04:42:52;;;;;;;4.27;2.50;;;6.90;99.90;;;;;;5035073;28;20173;-74
2024/01/04 04:45:18;;;;;;;7.60;3.00;;;6.90;99.90;;;;;;5034784;28;20511;-74
2024/01/04 04:47:43;;;;;;;7.33;3.00;;;6.90;99.90;;;;;;5037422;28;20627;-74
2024/01/04 04:50:09;;;;;;;5.50;2.83;;;6.90;99.90;;;;;;5040352;28;20677;-73
2024/01/04 04:52:35;;;;;;;6.23;2.80;;;6.90;99.90;;;;;;5051105;28;20642;-74
2024/01/04 04:55:00;;;;;;;9.57;3.60;;;6.80;99.90;;;;;;5050911;28;20173;-73
2024/01/04 04:57:26;;;;;;;6.33;3.10;;;6.80;99.90;;;;;;5050966;28;20169;-74
2024/01/04 04:59:52;;;;;;;5.63;2.83;;;6.90;99.90;;;;;;5050986;28;20250;-73
2024/01/04 05:02:18;;;;;;;6.23;3.07;;;6.90;99.90;;;;;;5051109;28;20200;-74
2024/01/04 05:04:44;;;;;;;8.27;3.27;;;6.80;99.90;;;;;;5050909;28;20180;-73
2024/01/04 05:07:10;;;;;;;7.37;2.87;;;6.70;99.90;;;;;;5049677;28;20173;-73
2024/01/04 05:09:35;;;;;;;5.87;2.77;;;6.70;99.90;;;;;;5050856;28;20643;-73
2024/01/04 05:12:01;;;;;;;6.30;2.90;;;6.60;99.90;;;;;;5050808;28;20197;-74
2024/01/04 05:14:27;;;;;;;6.90;2.70;;;6.50;99.90;;;;;;5050716;28;20173;-73
2024/01/04 05:16:54;;;;;;;9.40;3.30;;;6.50;99.90;;;;;;5050751;28;20524;-73
2024/01/04 05:19:20;;;;;;;6.53;2.60;;;6.50;99.90;;;;;;5036668;28;20185;-72
2024/01/04 05:21:45;;;;;;;5.50;2.37;;;6.50;99.90;;;;;;5050585;28;20195;-72
2024/01/04 05:24:11;;;;;;;5.80;2.60;;;6.50;99.90;;;;;;5043577;28;20264;-72
2024/01/04 05:26:37;;;;;;;6.70;2.63;;;6.40;99.90;;;;;;5030561;28;20185;-72
2024/01/04 05:29:02;;;;;;;6.43;2.77;;;6.50;99.90;;;;;;5030683;28;20174;-72
2024/01/04 05:31:29;;;;;;;6.57;2.63;;;6.40;99.90;;;;;;5030499;28;20202;-72
2024/01/04 05:33:55;;;;;;;5.67;2.63;;;6.40;99.90;;;;;;5032964;28;20224;-72
2024/01/04 05:36:20;;;;;;;4.70;2.40;;;6.30;99.90;;;;;;5040991;28;20185;-72
2024/01/04 05:38:46;;;;;;;8.07;2.90;;;6.20;99.90;;;;;;5054146;28;20170;-73
2024/01/04 05:41:12;;;;;;;5.87;2.63;;;6.20;99.90;;;;;;5054402;28;20173;-73
2024/01/04 05:43:37;;;;;;;6.70;2.47;;;6.20;99.90;;;;;;5054094;28;20173;-73
2024/01/04 05:46:06;;;;;;;6.50;2.43;;;6.20;99.90;;;;;;5054208;28;20541;-74
2024/01/04 05:48:32;;;;;;;8.03;2.70;;;6.20;99.90;;;;;;5054185;28;20170;-73
2024/01/04 05:50:58;;;;;;;6.90;2.43;;;6.20;99.90;;;;;;5053923;28;20232;-73
2024/01/04 05:53:24;;;;;;;6.33;2.27;;;6.30;99.90;;;;;;5054165;28;20173;-73
2024/01/04 05:55:49;;;;;;;6.27;2.40;;;6.40;99.90;;;;;;5052917;28;20185;-73
2024/01/04 05:58:15;;;;;;;6.50;2.53;;;6.40;99.90;;;;;;5054087;28;20223;-73
2024/01/04 06:00:41;;;;;;;6.17;2.23;;;6.40;99.90;;;;;;5054001;28;20248;-73
2024/01/04 06:03:06;;;;;;;8.13;2.53;;;6.30;99.90;;;;;;5054051;28;20203;-73
2024/01/04 06:05:32;;;;;;;5.10;2.47;;;6.30;99.90;;;;;;5053885;28;20793;-73
2024/01/04 06:07:58;;;;;;;5.90;2.60;;;6.30;99.90;;;;;;5054017;28;20723;-73
2024/01/04 06:10:23;;;;;;;10.17;3.50;;;6.40;99.90;;;;;;5053703;28;20192;-73
2024/01/04 06:12:49;;;;;;;7.20;2.90;;;6.50;99.90;;;;;;5053618;28;20170;-73
2024/01/04 06:15:16;;;;;;;7.47;3.13;;;6.50;99.90;;;;;;5053823;28;20260;-73
2024/01/04 06:17:41;;;;;;;7.53;2.90;;;6.50;99.90;;;;;;5053809;28;20173;-72
2024/01/04 06:20:07;;;;;;;5.10;2.60;;;6.50;99.90;;;;;;5053772;28;20551;-72
2024/01/04 06:22:33;;;;;;;11.43;3.13;;;6.50;99.90;;;;;;5053572;28;20173;-72
2024/01/04 06:24:59;;;;;;;8.63;3.40;;;6.40;99.90;;;;;;5037390;28;20264;-72
2024/01/04 06:27:25;;;;;;;5.03;2.70;;;6.50;99.90;;;;;;5033666;28;20181;-72
2024/01/04 06:29:51;;;;;;;6.37;2.70;;;6.40;99.90;;;;;;5065690;28;20181;-72
2024/01/04 06:32:16;;;;;;;6.27;2.90;;;6.40;99.90;;;;;;5033524;28;20206;-72
2024/01/04 06:34:42;;;;;;;8.70;3.07;;;6.40;99.90;;;;;;5036711;28;20166;-73
2024/01/04 06:37:08;;;;;;;8.87;3.10;;;6.40;99.90;;;;;;5051663;28;20667;-73
2024/01/04 06:39:33;;;;;;;6.17;3.03;;;6.40;99.90;;;;;;5046909;28;20174;-73
2024/01/04 06:42:03;;;;;;;7.30;3.10;;;6.40;99.90;;;;;;5048518;28;20178;-73
2024/01/04 06:44:31;;;;;;;6.00;2.93;;;6.50;99.90;;;;;;5033211;28;20539;-73
2024/01/04 06:46:56;;;;;;;9.77;3.27;;;6.50;99.90;;;;;;5033258;28;20182;-75
2024/01/04 06:49:22;;;;;;;9.50;3.63;;;6.60;99.90;;;;;;5048624;28;20628;-75
2024/01/04 06:51:48;;;;;;;7.67;3.37;;;6.60;99.90;;;;;;5032889;28;20229;-73
2024/01/04 06:54:13;;;;;;;7.57;3.40;;;6.70;99.90;;;;;;5033141;28;20209;-73
2024/01/04 06:56:39;;;;;;;8.10;3.87;;;6.60;99.90;;;;;;5067676;28;20176;-73
2024/01/04 06:59:05;;;;;;;6.87;3.50;;;6.60;99.90;;;;;;5039047;28;20540;-73
2024/01/04 07:01:30;;;;;;;5.70;3.40;;;6.60;99.90;;;;;;5053131;28;20381;-73
2024/01/04 07:03:56;;;;;;;10.57;4.37;;;6.60;99.90;;;;;;5052828;28;20522;-73
2024/01/04 07:06:21;;;;;;;8.60;3.80;;;6.60;99.90;;;;;;5052900;28;20619;-74
2024/01/04 07:08:48;;;;;;;9.83;3.70;;;6.50;99.90;;;;;;5052734;28;20177;-73
2024/01/04 07:11:13;;;;;;;7.90;3.70;;;6.60;99.90;;;;;;5052599;28;20201;-73
2024/01/04 07:13:39;;;;;;;6.77;3.43;;;6.50;99.90;;;;;;5052851;28;20248;-75
2024/01/04 07:16:05;;;;;;;7.23;3.50;;;6.60;99.90;;;;;;5052381;28;20667;-74
2024/01/04 07:18:31;;;;;;;8.87;4.00;;;6.50;99.90;;;;;;5049475;28;20550;-76
2024/01/04 07:20:57;;;;;;;10.07;3.93;;;6.40;99.90;;;;;;5036046;28;20257;-75
2024/01/04 07:23:22;;;;;;;7.33;3.60;;;6.40;99.90;;;;;;5032519;28;20575;-75
2024/01/04 07:25:48;;;;;;;8.43;3.90;;;6.40;99.90;;;;;;5032523;28;20170;-74
2024/01/04 07:28:14;;;;;;;10.50;3.70;;;6.40;99.90;;;;;;5032489;28;20180;-75
2024/01/04 07:30:40;;;;;;;12.83;4.63;;;6.40;99.90;;;;;;5032257;28;20221;-75
2024/01/04 07:33:06;;;;;;;9.87;3.80;;;6.40;99.90;;;;;;5037650;28;20208;-74
2024/01/04 07:35:31;;;;;;;5.83;3.60;;;6.30;99.90;;;;;;5036352;28;20633;-75
2024/01/04 07:37:59;;;;;;;10.13;3.80;;;6.20;99.90;;;;;;5047851;28;20169;-74
2024/01/04 07:40:24;;;;;;;6.80;3.27;;;6.10;99.90;;;;;;5052027;28;20169;-74
2024/01/04 07:42:50;;;;;;;7.20;3.37;;;6.10;99.90;;;;;;5052023;28;20636;-74
2024/01/04 07:45:16;;;;;;;7.63;3.80;;;6.00;99.90;;;;;;5051911;28;20161;-73
2024/01/04 07:47:42;;;;;;;10.73;3.77;;;6.00;99.90;;;;;;5051734;28;20173;-74
2024/01/04 07:50:08;;;;;;;8.90;3.33;;;5.90;99.90;;;;;;5034151;28;20225;-75
2024/01/04 07:52:33;;;;;;;8.60;3.60;;;5.80;99.90;;;;;;5030590;28;20236;-74
2024/01/04 07:54:59;;;;;;;7.20;3.17;;;5.70;99.90;;;;;;5031722;28;20265;-75
2024/01/04 07:57:25;;;;;;;10.00;3.70;;;5.90;99.90;;;;;;5031397;28;20244;-75
2024/01/04 07:59:51;;;;;;;8.07;3.20;;;5.90;99.90;;;;;;5035454;28;20237;-76
2024/01/04 08:02:17;;;;;;;14.10;3.87;;;5.80;99.90;;;;;;5032113;28;20551;-75
2024/01/04 08:04:43;;;;;;;9.13;2.93;;;5.80;99.90;;;;;;5036563;28;20223;-75
2024/01/04 08:07:08;;;;;;;9.53;3.40;;;5.80;99.90;;;;;;5050575;28;20244;-75
2024/01/04 08:09:34;;;;;;;7.23;3.07;;;5.70;99.90;;;;;;5051702;28;20592;-74
2024/01/04 08:12:01;;;;;;;7.27;3.00;;;5.70;99.90;;;;;;5051437;28;20747;-74
2024/01/04 08:14:26;;;;;;;7.00;3.20;;;5.70;99.90;;;;;;5050112;28;20177;-75
2024/01/04 08:16:52;;;;;;;10.10;3.73;;;5.80;99.90;;;;;;5051442;28;20256;-74
2024/01/04 08:19:18;;;;;;;11.83;3.57;;;5.80;99.90;;;;;;5036128;28;20650;-75
2024/01/04 08:21:43;;;;;;;6.97;3.30;;;5.90;99.90;;;;;;5031364;28;20185;-74
2024/01/04 08:24:09;;;;;;;8.70;3.30;;;6.00;99.90;;;;;;5031268;28;20166;-75
2024/01/04 08:26:41;;;;;;;10.00;3.67;;;6.10;99.90;;;;;;5031364;28;20170;-74
2024/01/04 08:29:07;;;;;;;8.23;3.50;;;6.10;99.90;;;;;;5031317;28;20166;-73
2024/01/04 08:31:33;;;;;;;9.40;3.87;;;6.20;99.90;;;;;;5029799;28;20210;-74
2024/01/04 08:33:59;;;;;;;12.47;3.77;;;6.20;99.90;;;;;;5031291;28;20689;-75
2024/01/04 08:36:25;;;;;;;5.83;3.57;;;6.20;99.90;;;;;;5031367;28;20166;-75
2024/01/04 08:38:51;;;;;;;7.83;3.93;;;6.30;99.90;;;;;;5032309;28;20548;-74
2024/01/04 08:41:16;;;;;;;8.90;3.87;;;6.40;99.90;;;;;;5045145;28;20212;-75
2024/01/04 08:43:42;;;;;;;11.43;4.23;;;6.50;99.90;;;;;;5048982;28;20201;-73
2024/01/04 08:46:08;;;;;;;12.37;4.43;;;6.50;99.90;;;;;;5033868;28;20689;-74
2024/01/04 08:48:34;;;;;;;9.13;4.20;;;6.50;99.90;;;;;;5043583;28;20600;-74
2024/01/04 08:50:59;;;;;;;7.77;3.93;;;6.60;99.90;;;;;;5049618;28;20313;-75
2024/01/04 08:53:25;;;;;;;11.73;4.27;;;6.60;99.90;;;;;;5046902;28;20619;-76
2024/01/04 08:55:51;;;;;;;8.30;3.90;;;6.60;99.90;;;;;;5050643;28;20170;-75
2024/01/04 08:58:16;;;;;;;6.80;3.60;;;6.60;99.90;;;;;;5034750;28;20620;-77
2024/01/04 09:00:42;;;;;;;6.00;3.70;;;6.70;99.90;;;;;;5050812;28;20680;-75
2024/01/04 09:03:08;;;;;;;10.93;4.30;;;6.70;99.90;;;;;;5050582;28;20624;-71
2024/01/04 09:05:34;;;;;;;10.13;3.90;;;6.70;99.90;;;;;;5030930;28;20244;-77
2024/01/04 09:07:59;;;;;;;9.47;3.90;;;6.80;99.90;;;;;;5037892;28;20184;-76
2024/01/04 09:10:25;;;;;;;7.00;3.53;;;6.80;99.90;;;;;;5054837;28;20173;-76
2024/01/04 09:12:51;;;;;;;7.87;3.70;;;6.80;99.90;;;;;;5054964;28;20173;-75
2024/01/04 09:15:18;;;;;;;5.17;3.53;;;6.80;99.90;;;;;;5039132;28;20212;-76
2024/01/04 09:17:43;;;;;;;9.53;4.10;;;6.90;99.90;;;;;;5034866;28;20189;-74
2024/01/04 09:20:10;;;;;;;6.90;3.53;;;6.80;99.90;;;;;;5034930;28;20169;-75
2024/01/04 09:22:36;;;;;;;8.83;3.70;;;6.80;99.90;;;;;;5035921;28;20174;-76
2024/01/04 09:25:03;;;;;;;10.33;4.40;;;6.90;99.90;;;;;;5046483;28;20181;-75
2024/01/04 09:27:29;;;;;;;6.77;3.80;;;6.90;99.90;;;;;;5053167;28;20165;-75
2024/01/04 09:29:55;;;;;;;8.73;4.40;;;7.00;99.90;;;;;;5054606;28;20558;-75
2024/01/04 09:32:21;;;;;;;14.40;5.10;;;7.00;99.90;;;;;;5054465;28;20209;-76
2024/01/04 09:34:46;;;;;;;9.93;4.50;;;7.00;99.90;;;;;;5053190;28;20181;-75
2024/01/04 09:37:12;;;;;;;9.90;4.47;;;7.10;99.90;;;;;;5054412;28;20227;-78
2024/01/04 09:39:40;;;;;;;10.77;4.70;;;7.10;99.90;;;;;;5043064;28;20209;-77
2024/01/04 09:42:09;;;;;;;8.87;4.30;;;7.10;99.90;;;;;;5051220;28;20178;-76
2024/01/04 09:44:35;;;;;;;8.50;4.67;;;7.10;99.90;;;;;;5046648;28;20219;-77
2024/01/04 09:47:10;;;;;;;10.13;4.90;;;7.20;99.90;;;;;;5053693;28;20208;-75
2024/01/04 09:49:39;;;;;;;9.27;4.80;;;7.30;99.90;;;;;;5053355;28;20180;-76
2024/01/04 09:52:05;;;;;;;12.43;5.43;;;7.30;99.90;;;;;;5038326;28;20267;-76
2024/01/04 09:54:32;;;;;;;15.20;5.67;;;7.40;99.90;;;;;;5034183;28;20231;-76
2024/01/04 09:57:00;;;;;;;10.20;5.23;;;7.40;99.90;;;;;;5033845;28;20178;-75
2024/01/04 09:59:28;;;;;;;15.67;6.07;;;7.40;99.90;;;;;;5034059;28;20178;-75
2024/01/04 10:01:55;;;;;;;12.13;5.80;;;7.50;99.90;;;;;;5034085;28;20269;-76
2024/01/04 10:04:24;;;;;;;16.83;6.10;;;7.50;99.90;;;;;;5032875;28;20170;-74
2024/01/04 10:06:53;;;;;;;11.33;5.73;;;7.50;99.90;;;;;;5034069;28;20173;-76
2024/01/04 10:09:25;;;;;;;12.30;5.60;;;7.60;99.90;;;;;;5033987;28;20614;-81
2024/01/04 10:12:11;;;;;;;12.90;5.23;;;7.70;99.90;;;;;;5035086;28;20646;-77
2024/01/04 10:14:37;;;;;;;16.13;5.83;;;7.70;99.90;;;;;;5039981;28;20644;-77
2024/01/04 10:17:03;;;;;;;10.67;5.67;;;7.70;99.90;;;;;;5048860;28;20268;-78
2024/01/04 10:19:31;;;;;;;12.90;5.30;;;7.80;99.90;;;;;;5053066;28;20165;-78
2024/01/04 10:22:05;;;;;;;14.33;5.80;;;7.80;99.90;;;;;;5053716;28;20170;-75
2024/01/04 10:24:37;;;;;;;14.17;6.30;;;7.70;99.90;;;;;;5053657;28;20264;-77
2024/01/04 10:27:03;;;;;;;13.17;6.47;;;7.80;99.90;;;;;;5053340;28;20211;-76
2024/01/04 10:29:30;;;;;;;16.47;6.87;;;7.80;99.90;;;;;;5053449;28;20644;-77
2024/01/04 10:32:10;;;;;;;13.67;6.77;;;7.70;99.90;;;;;;5052709;28;20204;-78
2024/01/04 10:34:37;;;;;;;13.97;6.10;;;7.80;99.90;;;;;;5053438;28;20180;-75
2024/01/04 10:37:22;;;;;;;14.47;6.70;;;7.80;99.90;;;;;;5053442;28;20666;-77
2024/01/04 10:40:00;;;;;;;12.60;6.10;;;7.80;99.90;;;;;;5051315;28;20244;-77
2024/01/04 10:42:27;;;;;;;10.97;6.23;;;7.90;99.90;;;;;;5052868;28;20314;-77
2024/01/04 10:44:55;;;;;;;12.50;5.97;;;7.90;99.90;;;;;;5053232;28;20181;-76
2024/01/04 10:47:22;;;;;;;13.43;6.10;;;8.00;99.90;;;;;;5053374;28;20272;-76
2024/01/04 10:49:49;;;;;;;11.83;6.10;;;8.00;99.90;;;;;;5052863;28;20172;-77
2024/01/04 10:52:16;;;;;;;14.30;5.87;;;8.00;99.90;;;;;;5052781;28;20209;-76
2024/01/04 10:54:43;;;;;;;14.00;5.60;;;8.10;99.90;;;;;;5053063;28;20177;-76
2024/01/04 10:57:11;;;;;;;13.73;6.20;;;8.10;99.90;;;;;;5052968;28;20166;-77
2024/01/04 10:59:37;;;;;;;14.00;5.67;;;8.00;99.90;;;;;;5052996;28;20170;-76
2024/01/04 11:02:03;;;;;;;13.33;6.43;;;8.10;99.90;;;;;;5052957;28;20311;-76
2024/01/04 11:04:30;;;;;;;13.67;7.07;;;8.00;99.90;;;;;;5052840;28;20166;-76
2024/01/04 11:06:57;;;;;;;17.33;7.70;;;8.00;99.90;;;;;;5052736;28;20177;-77
2024/01/04 11:09:24;;;;;;;16.37;7.63;;;8.00;99.90;;;;;;5051511;28;20173;-76
2024/01/04 11:11:54;;;;;;;17.07;8.67;;;8.00;99.90;;;;;;5052634;28;20221;-76
2024/01/04 11:14:24;;;;;;;16.10;7.23;;;8.00;99.90;;;;;;5052476;28;20181;-76
2024/01/04 11:17:08;;;;;;;19.20;7.13;;;8.00;99.90;;;;;;5048128;28;20226;-77
2024/01/04 11:20:01;;;;;;;16.33;6.70;;;8.10;99.90;;;;;;5046238;28;20189;-76
2024/01/04 11:22:58;;;;;;;12.17;5.93;;;8.10;99.90;;;;;;5048649;28;20212;-77
2024/01/04 11:25:27;;;;;;;14.20;6.50;;;8.20;99.90;;;;;;5030772;28;20170;-76
2024/01/04 11:27:53;;;;;;;16.27;6.60;;;8.10;99.90;;;;;;5032647;28;20588;-78
2024/01/04 11:30:19;;;;;;;18.53;6.53;;;8.10;99.90;;;;;;5031567;28;20171;-77
2024/01/04 11:32:45;;;;;;;14.07;6.30;;;8.00;99.90;;;;;;5032062;28;20210;-77
2024/01/04 11:35:11;;;;;;;27.67;7.37;;;7.90;99.90;;;;;;5040635;28;20528;-77
2024/01/04 11:37:37;;;;;;;17.60;6.10;;;7.90;99.90;;;;;;5052010;28;20251;-78
2024/01/04 11:40:07;;;;;;;17.03;6.37;;;7.90;99.90;;;;;;5051938;28;20260;-78
2024/01/04 11:42:37;;;;;;;19.00;6.17;;;7.90;99.90;;;;;;5052148;28;20196;-77
2024/01/04 11:45:06;;;;;;;13.83;5.93;;;7.90;99.90;;;;;;5051897;28;20177;-77
2024/01/04 11:47:39;;;;;;;12.60;6.10;;;7.90;99.90;;;;;;5051865;28;20181;-78
2024/01/04 11:50:25;;;;;;;19.10;6.20;;;7.90;99.90;;;;;;5051761;28;20224;-78
2024/01/04 11:53:01;;;;;;;16.23;6.20;;;7.90;99.90;;;;;;5051924;28;20188;-78
2024/01/04 11:55:28;;;;;;;11.13;5.90;;;7.90;99.90;;;;;;5051978;28;20181;-77
2024/01/04 11:58:13;;;;;;;13.97;6.03;;;7.90;99.90;;;;;;5051913;28;20259;-78
2024/01/04 12:00:47;;;;;;;17.67;5.93;;;7.90;99.90;;;;;;5051688;28;20200;-77
2024/01/04 12:03:14;;;;;;;14.70;5.50;;;7.90;99.90;;;;;;5051725;28;20227;-78
2024/01/04 12:05:50;;;;;;;13.60;6.07;;;7.90;99.90;;;;;;5051612;28;20195;-78
2024/01/04 12:08:29;;;;;;;12.47;5.57;;;7.90;99.90;;;;;;5051788;28;20173;-77
2024/01/04 12:11:00;;;;;;;16.03;6.00;;;8.00;99.90;;;;;;5051630;28;20207;-78
2024/01/04 12:13:26;;;;;;;16.43;6.07;;;8.00;99.90;;;;;;5051667;28;20208;-77
2024/01/04 12:15:52;;;;;;;16.57;7.07;;;8.00;99.90;;;;;;5051637;28;20173;-78
2024/01/04 12:18:17;;;;;;;14.90;6.33;;;8.00;99.90;;;;;;5051896;28;20556;-76
2024/01/04 12:20:47;;;;;;;15.50;6.50;;;8.00;99.90;;;;;;5051530;28;20192;-77
2024/01/04 12:23:13;;;;;;;15.67;6.67;;;7.90;99.90;;;;;;5049985;28;20273;-76
2024/01/04 12:25:39;;;;;;;13.20;6.47;;;7.90;99.90;;;;;;5051402;28;20181;-76
2024/01/04 12:28:07;;;;;;;12.70;6.33;;;7.90;99.90;;;;;;5051285;28;20181;-76
2024/01/04 12:30:35;;;;;;;18.33;6.73;;;7.90;99.90;;;;;;5051253;28;20172;-77
2024/01/04 12:33:01;;;;;;;14.00;6.43;;;7.90;99.90;;;;;;5051520;28;20226;-76
2024/01/04 12:35:27;;;;;;;12.30;6.20;;;7.90;99.90;;;;;;5051405;28;20184;-76
2024/01/04 12:38:00;;;;;;;13.40;5.90;;;8.00;99.90;;;;;;5051419;28;20184;-76
2024/01/04 12:40:26;;;;;;;17.90;6.20;;;8.00;99.90;;;;;;5051175;28;20211;-76
2024/01/04 12:42:52;;;;;;;14.97;6.27;;;8.00;99.90;;;;;;5050861;28;20628;-76
2024/01/04 12:45:17;;;;;;;12.83;6.20;;;8.10;99.90;;;;;;5051089;28;20172;-76
2024/01/04 12:47:43;;;;;;;13.37;6.07;;;8.10;99.90;;;;;;5051002;28;20537;-77
2024/01/04 12:50:12;;;;;;;14.53;6.60;;;8.00;99.90;;;;;;5050891;28;20722;-76